createdAt,value
2022-12-22T00:02:10.136Z,61.75
2022-12-22T00:05:40.342Z,62.90
2022-12-22T00:09:05.737Z,57.77
2022-12-22T00:12:32.095Z,58.22
2022-12-22T00:15:54.534Z,60.30
2022-12-22T00:19:16.486Z,66.80
2022-12-22T00:22:43.700Z,66.50
2022-12-22T00:26:06.987Z,65.93
2022-12-22T00:29:34.570Z,60.70
2022-12-22T00:32:57.319Z,64.20
2022-12-22T00:36:19.141Z,65.40
2022-12-22T00:39:41.018Z,60.40
2022-12-22T00:43:02.803Z,55.03
2022-12-22T00:46:24.677Z,55.95
2022-12-22T00:49:48.468Z,58.40
2022-12-22T00:53:10.352Z,55.83
2022-12-22T00:56:32.277Z,59.58
2022-12-22T00:59:54.660Z,55.13
2022-12-22T01:03:16.475Z,55.30
2022-12-22T01:06:38.979Z,51.95
2022-12-22T01:10:07.831Z,56.30
2022-12-22T01:13:31.785Z,52.13
2022-12-22T01:16:53.794Z,52.97
2022-12-22T01:20:15.678Z,54.17
2022-12-22T01:23:37.537Z,57.72
2022-12-22T01:26:59.344Z,52.95
2022-12-22T01:30:21.084Z,57.53
2022-12-22T01:33:42.968Z,54.17
2022-12-22T01:37:04.942Z,53.53
2022-12-22T01:40:33.895Z,55.78
2022-12-22T01:43:55.975Z,55.95
2022-12-22T01:47:46.061Z,55.88
2022-12-22T01:51:08.058Z,51.90
2022-12-22T01:54:31.626Z,57.05
2022-12-22T01:57:53.618Z,57.63
2022-12-22T02:01:15.517Z,61.92
2022-12-22T02:04:40.995Z,58.10
2022-12-22T02:08:24.836Z,55.57
2022-12-22T02:12:06.024Z,53.88
2022-12-22T02:15:44.553Z,62.38
2022-12-22T02:19:45.278Z,56.97
2022-12-22T02:23:07.064Z,55.97
2022-12-22T02:27:01.115Z,57.50
2022-12-22T02:30:26.691Z,60.33
2022-12-22T02:33:49.583Z,63.72
2022-12-22T02:37:36.141Z,57.00
2022-12-22T02:41:25.201Z,61.00
2022-12-22T02:45:00.875Z,59.93
2022-12-22T02:48:30.087Z,57.05
2022-12-22T02:51:59.561Z,58.67
2022-12-22T02:55:23.194Z,64.35
2022-12-22T02:58:45.204Z,62.97
2022-12-22T03:02:07.211Z,56.63
2022-12-22T03:05:29.352Z,57.55
2022-12-22T03:08:51.618Z,62.50
2022-12-22T03:12:13.562Z,61.35
2022-12-22T03:15:35.653Z,61.50
2022-12-22T03:18:58.323Z,63.87
2022-12-22T03:22:20.387Z,63.60
2022-12-22T03:25:42.268Z,61.67
2022-12-22T03:28:45.986Z,63.90
2022-12-22T03:31:49.713Z,65.22
2022-12-22T03:34:53.129Z,66.80
2022-12-22T03:37:56.539Z,63.95
2022-12-22T03:41:00.353Z,68.88
2022-12-22T03:44:22.171Z,65.13
2022-12-22T03:47:25.648Z,67.53
2022-12-22T03:50:30.347Z,76.00
2022-12-22T03:53:33.787Z,63.95
2022-12-22T03:56:37.970Z,61.97
2022-12-22T03:59:41.423Z,68.03
2022-12-22T04:02:45.206Z,57.90
2022-12-22T04:05:48.717Z,58.53
2022-12-22T04:08:52.552Z,60.33
2022-12-22T04:12:14.455Z,69.63
2022-12-22T04:15:17.988Z,60.55
2022-12-22T04:18:21.672Z,63.85
2022-12-22T04:21:25.568Z,63.33
2022-12-22T04:24:29.172Z,59.05
2022-12-22T04:27:32.725Z,63.28
2022-12-22T04:30:36.493Z,65.15
2022-12-22T04:33:40.218Z,71.35
2022-12-22T04:36:43.672Z,65.67
2022-12-22T04:39:47.097Z,72.45
2022-12-22T04:42:50.583Z,75.95
2022-12-22T04:45:57.930Z,70.78
2022-12-22T04:49:01.478Z,64.47
2022-12-22T04:52:05.233Z,60.73
2022-12-22T04:55:09.544Z,57.67
2022-12-22T04:58:13.014Z,60.53
2022-12-22T05:01:19.061Z,53.70
2022-12-22T05:04:23.978Z,55.70
2022-12-22T05:07:27.585Z,54.27
2022-12-22T05:10:31.780Z,55.93
2022-12-22T05:13:35.683Z,59.40
2022-12-22T05:16:39.194Z,59.00
2022-12-22T05:19:42.651Z,55.33
2022-12-22T05:22:46.573Z,58.13
2022-12-22T05:25:49.978Z,56.83
2022-12-22T05:28:53.442Z,56.17
2022-12-22T05:31:57.524Z,61.45
2022-12-22T05:35:01.771Z,62.33
2022-12-22T05:38:05.147Z,51.77
2022-12-22T05:41:09.272Z,63.90
2022-12-22T05:44:12.814Z,60.75
2022-12-22T05:47:16.270Z,65.18
2022-12-22T05:50:23.243Z,67.15
2022-12-22T05:53:35.305Z,57.73
2022-12-22T05:56:38.788Z,65.05
2022-12-22T05:59:42.247Z,61.00
2022-12-22T06:02:46.052Z,60.40
2022-12-22T06:05:50.925Z,56.25
2022-12-22T06:08:54.380Z,61.73
2022-12-22T06:11:57.824Z,72.88
2022-12-22T06:15:01.307Z,68.65
2022-12-22T06:18:04.783Z,62.50
2022-12-22T06:21:08.482Z,61.50
2022-12-22T06:24:12.018Z,62.77
2022-12-22T06:27:15.398Z,75.38
2022-12-22T06:30:18.996Z,71.38
2022-12-22T06:33:22.797Z,67.82
2022-12-22T06:36:26.354Z,76.22
2022-12-22T06:39:30.009Z,71.93
2022-12-22T06:42:52.129Z,66.72
2022-12-22T06:45:55.681Z,55.85
2022-12-22T06:48:59.149Z,55.38
2022-12-22T06:52:02.671Z,82.53
2022-12-22T06:55:06.992Z,67.53
2022-12-22T06:58:10.495Z,64.65
2022-12-22T07:01:14.070Z,63.58
2022-12-22T07:04:20.845Z,63.88
2022-12-22T07:07:24.329Z,56.60
2022-12-22T07:10:46.998Z,57.93
2022-12-22T07:13:50.432Z,56.13
2022-12-22T07:16:54.037Z,52.42
2022-12-22T07:19:57.577Z,53.75
2022-12-22T07:23:01.200Z,49.55
2022-12-22T07:26:06.481Z,49.83
2022-12-22T07:29:10.145Z,50.80
2022-12-22T07:32:13.932Z,50.10
2022-12-22T07:35:17.384Z,51.33
2022-12-22T07:38:20.806Z,47.60
2022-12-22T07:41:42.842Z,47.60
2022-12-22T07:44:46.458Z,46.13
2022-12-22T07:47:50.042Z,49.50
2022-12-22T07:51:03.478Z,44.28
2022-12-22T07:54:11.904Z,46.03
2022-12-22T07:57:15.403Z,48.43
2022-12-22T08:00:19.612Z,46.30
2022-12-22T08:03:23.142Z,48.40
2022-12-22T08:06:26.741Z,44.75
2022-12-22T08:09:30.450Z,43.38
2022-12-22T08:12:33.928Z,46.17
2022-12-22T08:15:38.162Z,42.23
2022-12-22T08:18:42.245Z,51.60
2022-12-22T08:21:52.429Z,55.22
2022-12-22T08:24:57.208Z,54.85
2022-12-22T08:28:01.793Z,63.50
2022-12-22T08:31:12.277Z,56.50
2022-12-22T08:34:16.924Z,50.40
2022-12-22T08:37:25.230Z,61.63
2022-12-22T08:40:33.938Z,54.83
2022-12-22T08:43:37.343Z,51.67
2022-12-22T08:46:40.840Z,49.93
2022-12-22T08:49:44.371Z,50.00
2022-12-22T08:52:47.938Z,52.50
2022-12-22T08:55:53.477Z,49.60
2022-12-22T08:58:57.057Z,55.60
2022-12-22T09:02:05.161Z,54.40
2022-12-22T09:05:09.112Z,51.00
2022-12-22T09:08:12.546Z,47.00
2022-12-22T09:11:17.181Z,46.67
2022-12-22T09:14:20.691Z,47.97
2022-12-22T09:17:24.161Z,48.40
2022-12-22T09:20:27.848Z,58.47
2022-12-22T09:23:33.043Z,55.13
2022-12-22T09:26:36.778Z,53.20
2022-12-22T09:29:41.661Z,55.67
2022-12-22T09:32:45.218Z,57.00
2022-12-22T09:35:48.654Z,59.28
2022-12-22T09:38:53.196Z,59.10
2022-12-22T09:41:59.352Z,70.45
2022-12-22T09:45:03.199Z,70.90
2022-12-22T09:48:11.465Z,66.63
2022-12-22T09:51:24.500Z,66.03
2022-12-22T09:54:31.102Z,65.95
2022-12-22T09:57:34.579Z,69.20
2022-12-22T10:00:38.449Z,62.47
2022-12-22T10:04:00.102Z,64.40
2022-12-22T10:07:10.159Z,70.05
2022-12-22T10:10:24.993Z,68.30
2022-12-22T10:13:28.969Z,63.25
2022-12-22T10:16:33.709Z,71.83
2022-12-22T10:19:37.139Z,71.57
2022-12-22T10:23:02.496Z,67.55
2022-12-22T10:26:29.622Z,69.60
2022-12-22T10:29:34.676Z,73.68
2022-12-22T10:32:38.311Z,72.17
2022-12-22T10:35:57.673Z,67.37
2022-12-22T10:39:13.240Z,67.00
2022-12-22T10:42:16.699Z,74.85
2022-12-22T10:45:24.853Z,69.32
2022-12-22T10:48:35.195Z,70.47
2022-12-22T10:51:40.509Z,73.87
2022-12-22T10:54:45.439Z,89.95
2022-12-22T10:57:49.794Z,89.82
2022-12-22T11:01:05.036Z,98.70
2022-12-22T11:04:26.236Z,83.00
2022-12-22T11:07:32.836Z,78.67
2022-12-22T11:10:51.734Z,76.80
2022-12-22T11:14:15.051Z,106.95
2022-12-22T11:17:30.255Z,113.43
2022-12-22T11:20:39.794Z,90.93
2022-12-22T11:23:49.778Z,84.43
2022-12-22T11:27:28.109Z,101.43
2022-12-22T11:31:14.906Z,81.60
2022-12-22T11:34:33.122Z,77.32
2022-12-22T11:37:49.669Z,66.63
2022-12-22T11:41:26.399Z,65.63
2022-12-22T11:44:50.743Z,61.03
2022-12-22T11:48:12.095Z,69.25
2022-12-22T11:51:28.043Z,66.18
2022-12-22T11:54:56.995Z,66.37
2022-12-22T11:58:20.846Z,69.40
2022-12-22T12:01:42.783Z,65.60
2022-12-22T12:05:06.660Z,75.63
2022-12-22T12:08:21.797Z,74.20
2022-12-22T12:11:33.170Z,70.40
2022-12-22T12:14:48.599Z,65.97
2022-12-22T12:18:01.149Z,76.75
2022-12-22T12:21:39.137Z,75.85
2022-12-22T12:25:03.239Z,74.93
2022-12-22T12:28:38.804Z,74.20
2022-12-22T12:32:24.243Z,76.27
2022-12-22T12:35:50.363Z,74.93
2022-12-22T12:39:17.423Z,74.63
2022-12-22T12:42:43.559Z,78.20
2022-12-22T12:45:49.147Z,84.27
2022-12-22T12:48:52.748Z,78.80
2022-12-22T12:51:56.435Z,74.63
2022-12-22T12:55:31.596Z,89.90
2022-12-22T12:58:38.573Z,75.15
2022-12-22T13:01:54.336Z,83.13
2022-12-22T13:05:12.401Z,80.13
2022-12-22T13:08:20.599Z,85.85
2022-12-22T13:15:01.449Z,81.70
2022-12-22T13:18:16.121Z,77.97
2022-12-22T13:21:54.213Z,80.55
2022-12-22T13:25:02.219Z,80.53
2022-12-22T13:28:08.826Z,87.35
2022-12-22T13:31:20.559Z,79.53
2022-12-22T13:35:29.755Z,77.47
2022-12-22T13:38:36.444Z,77.87
2022-12-22T13:41:45.738Z,81.15
2022-12-22T13:44:49.324Z,91.45
2022-12-22T13:47:53.225Z,98.40
2022-12-22T13:51:03.812Z,100.23
2022-12-22T13:54:19.273Z,96.82
2022-12-22T13:57:23.449Z,89.68
2022-12-22T14:00:28.522Z,99.40
2022-12-22T14:03:58.839Z,101.82
2022-12-22T14:06:55.724Z,103.57
2022-12-22T14:09:59.468Z,104.30
2022-12-22T14:13:10.998Z,112.35
2022-12-22T14:16:15.876Z,106.18
2022-12-22T14:19:20.439Z,111.80
2022-12-22T14:22:28.698Z,121.60
2022-12-22T14:25:36.285Z,112.20
2022-12-22T14:28:50.338Z,106.95
2022-12-22T14:32:01.743Z,104.75
2022-12-22T14:35:21.681Z,134.70
2022-12-22T14:38:26.764Z,115.63
2022-12-22T14:41:55.091Z,108.07
2022-12-22T14:44:59.744Z,125.47
2022-12-22T14:48:07.542Z,135.02
2022-12-22T14:51:11.229Z,114.90
2022-12-22T14:54:22.315Z,105.30
2022-12-22T14:57:34.644Z,107.97
2022-12-22T15:01:10.616Z,112.90
2022-12-22T15:04:18.124Z,106.57
2022-12-22T15:08:03.423Z,113.75
2022-12-22T15:10:45.962Z,118.73
2022-12-22T15:13:51.845Z,127.30
2022-12-22T15:17:01.968Z,128.48
2022-12-22T15:20:06.117Z,111.15
2022-12-22T15:23:12.634Z,114.60
2022-12-22T15:26:16.668Z,105.77
2022-12-22T15:29:20.896Z,126.18
2022-12-22T15:32:27.213Z,120.43
2022-12-22T15:35:33.764Z,116.75
2022-12-22T15:38:39.159Z,113.32
2022-12-22T15:41:44.116Z,113.50
2022-12-22T15:44:47.587Z,115.90
2022-12-22T15:47:53.562Z,117.30
2022-12-22T15:51:00.596Z,103.57
2022-12-22T15:54:05.194Z,105.22
2022-12-22T15:57:13.710Z,119.33
2022-12-22T16:00:18.648Z,110.60
2022-12-22T16:03:22.268Z,114.40
2022-12-22T16:06:26.136Z,116.35
2022-12-22T16:09:38.235Z,121.40
2022-12-22T16:12:43.243Z,116.13
2022-12-22T16:15:46.685Z,112.55
2022-12-22T16:18:51.094Z,105.35
2022-12-22T16:21:54.834Z,99.13
2022-12-22T16:24:58.591Z,95.60
2022-12-22T16:28:03.197Z,93.67
2022-12-22T16:31:23.169Z,98.07
2022-12-22T16:34:26.736Z,91.82
2022-12-22T16:37:30.205Z,93.15
2022-12-22T16:40:42.159Z,89.00
2022-12-22T16:43:49.043Z,90.07
2022-12-22T16:46:52.930Z,97.68
2022-12-22T16:49:56.771Z,103.95
2022-12-22T16:53:05.871Z,99.55
2022-12-22T16:56:18.751Z,106.25
2022-12-22T16:59:22.877Z,94.80
2022-12-22T17:02:30.862Z,94.35
2022-12-22T17:06:05.899Z,95.18
2022-12-22T17:09:16.126Z,96.15
2022-12-22T17:12:24.757Z,90.65
2022-12-22T17:15:28.222Z,93.33
2022-12-22T17:18:37.655Z,93.30
2022-12-22T17:21:41.293Z,91.47
2022-12-22T17:24:44.770Z,94.88
2022-12-22T17:27:48.640Z,94.35
2022-12-22T17:30:55.529Z,93.37
2022-12-22T17:33:59.043Z,93.22
2022-12-22T17:37:02.670Z,90.78
2022-12-22T17:40:08.107Z,87.82
2022-12-22T17:43:19.491Z,79.93
2022-12-22T17:46:23.545Z,83.23
2022-12-22T17:49:26.998Z,91.03
2022-12-22T17:52:30.481Z,92.30
2022-12-22T17:56:07.207Z,99.32
2022-12-22T17:58:57.892Z,111.75
2022-12-22T18:02:01.703Z,126.13
2022-12-22T18:05:05.527Z,123.10
2022-12-22T18:08:19.266Z,121.32
2022-12-22T18:11:24.017Z,124.38
2022-12-22T18:14:27.711Z,90.57
2022-12-22T18:17:35.876Z,93.63
2022-12-22T18:20:40.396Z,90.30
2022-12-22T18:23:49.966Z,88.80
2022-12-22T18:26:54.192Z,92.25
2022-12-22T18:29:57.842Z,98.88
2022-12-22T18:33:01.346Z,92.23
2022-12-22T18:36:05.111Z,90.88
2022-12-22T18:39:17.306Z,91.57
2022-12-22T18:42:23.603Z,94.95
2022-12-22T18:45:30.903Z,93.20
2022-12-22T18:48:34.405Z,95.20
2022-12-22T18:51:37.957Z,90.40
2022-12-22T18:54:41.455Z,96.97
2022-12-22T18:57:47.585Z,102.45
2022-12-22T19:00:53.203Z,101.80
2022-12-22T19:03:58.970Z,109.40
2022-12-22T19:07:02.412Z,99.55
2022-12-22T19:10:06.409Z,103.50
2022-12-22T19:13:34.284Z,98.93
2022-12-22T19:16:38.235Z,101.32
2022-12-22T19:19:41.938Z,97.97
2022-12-22T19:22:45.844Z,97.97
2022-12-22T19:25:56.231Z,95.72
2022-12-22T19:29:01.682Z,101.07
2022-12-22T19:32:05.573Z,104.90
2022-12-22T19:35:21.840Z,106.30
2022-12-22T19:38:26.736Z,99.40
2022-12-22T19:41:39.415Z,102.90
2022-12-22T19:44:44.200Z,97.82
2022-12-22T19:47:47.766Z,98.25
2022-12-22T19:50:53.569Z,99.50
2022-12-22T19:53:57.211Z,96.18
2022-12-22T19:57:00.795Z,102.00
2022-12-22T20:00:05.005Z,105.97
2022-12-22T20:03:21.870Z,104.10
2022-12-22T20:06:25.402Z,106.07
2022-12-22T20:09:28.797Z,98.70
2022-12-22T20:12:38.144Z,106.68
2022-12-22T20:15:42.001Z,100.65
2022-12-22T20:18:46.839Z,111.97
2022-12-22T20:21:50.366Z,106.00
2022-12-22T20:24:54.617Z,107.15
2022-12-22T20:27:58.345Z,113.25
2022-12-22T20:31:07.874Z,103.80
2022-12-22T20:34:11.261Z,110.50
2022-12-22T20:37:16.865Z,118.67
2022-12-22T20:40:29.763Z,122.68
2022-12-22T20:43:35.307Z,111.10
2022-12-22T20:46:40.422Z,107.07
2022-12-22T20:49:44.723Z,110.43
2022-12-22T20:52:49.073Z,101.43
2022-12-22T20:55:52.632Z,109.63
2022-12-22T20:58:56.717Z,112.50
2022-12-22T21:02:01.180Z,104.97
2022-12-22T21:05:05.021Z,102.30
2022-12-22T21:08:21.338Z,105.67
2022-12-22T21:11:25.493Z,100.45
2022-12-22T21:14:28.972Z,90.25
2022-12-22T21:17:32.404Z,106.20
2022-12-22T21:20:36.035Z,95.80
2022-12-22T21:23:39.620Z,100.70
2022-12-22T21:26:53.258Z,99.35
2022-12-22T21:29:56.656Z,91.45
2022-12-22T21:33:00.179Z,93.75
2022-12-22T21:36:04.538Z,96.85
2022-12-22T21:39:31.595Z,102.17
2022-12-22T21:42:35.139Z,91.00
2022-12-22T21:45:42.780Z,97.32
2022-12-22T21:48:46.585Z,98.13
2022-12-22T21:51:51.710Z,97.20
2022-12-22T21:54:55.136Z,90.80
2022-12-22T21:57:59.810Z,95.00
2022-12-22T22:01:03.592Z,98.50
2022-12-22T22:04:07.556Z,88.57
2022-12-22T22:07:10.966Z,100.50
2022-12-22T22:10:17.591Z,100.07
2022-12-22T22:13:21.188Z,106.20
2022-12-22T22:16:24.679Z,107.15
2022-12-22T22:19:28.462Z,104.70
2022-12-22T22:22:31.963Z,98.15
2022-12-22T22:25:35.437Z,97.40
2022-12-22T22:28:39.191Z,108.70
2022-12-22T22:31:42.818Z,104.10
2022-12-22T22:34:46.268Z,102.07
2022-12-22T22:37:51.574Z,114.45
2022-12-22T22:40:59.561Z,105.20
2022-12-22T22:44:03.267Z,105.07
2022-12-22T22:47:06.806Z,98.03
2022-12-22T22:50:10.440Z,100.13
2022-12-22T22:53:14.101Z,107.00
2022-12-22T22:56:17.500Z,98.77
2022-12-22T22:59:21.229Z,100.18
2022-12-22T23:02:25.048Z,104.50
2022-12-22T23:05:28.668Z,101.93
2022-12-22T23:08:33.619Z,104.15
2022-12-22T23:11:37.257Z,96.00
2022-12-22T23:14:40.908Z,94.70
2022-12-22T23:17:44.456Z,96.13
2022-12-22T23:20:50.275Z,95.35
2022-12-22T23:23:58.048Z,106.97
2022-12-22T23:27:01.630Z,89.87
2022-12-22T23:30:05.543Z,88.68
2022-12-22T23:33:09.757Z,91.55
2022-12-22T23:36:13.279Z,92.60
2022-12-22T23:39:17.446Z,98.10
2022-12-22T23:42:20.944Z,93.97
2022-12-22T23:45:24.394Z,93.00
2022-12-22T23:48:27.927Z,98.25
2022-12-22T23:51:31.557Z,102.38
2022-12-22T23:54:35.089Z,97.88
2022-12-22T23:57:38.667Z,87.13
